createdAt,value
2022-09-12T00:00:26.552Z,97757.94
2022-09-12T00:02:54.993Z,97759.72
2022-09-12T00:05:23.283Z,97753.53
2022-09-12T00:07:51.305Z,97751.31
2022-09-12T00:10:19.263Z,97752.28
2022-09-12T00:12:47.389Z,97757.09
2022-09-12T00:15:16.451Z,97756.28
2022-09-12T00:17:44.480Z,97746.50
2022-09-12T00:20:12.524Z,97756.28
2022-09-12T00:22:40.574Z,97752.75
2022-09-12T00:25:09.270Z,97747.63
2022-09-12T00:27:37.316Z,97741.53
2022-09-12T00:30:06.054Z,97750.81
2022-09-12T00:32:35.467Z,97747.78
2022-09-12T00:35:03.764Z,97749.34
2022-09-12T00:37:31.779Z,97746.19
2022-09-12T00:39:59.468Z,97747.78
2022-09-12T00:42:27.244Z,97740.06
2022-09-12T00:44:54.993Z,97741.38
2022-09-12T00:47:26.172Z,97746.97
2022-09-12T00:50:00.983Z,97744.59
2022-09-12T00:52:32.022Z,97732.72
2022-09-12T00:55:06.691Z,97735.44
2022-09-12T00:57:41.599Z,97731.09
2022-09-12T01:00:16.084Z,97728.38
2022-09-12T01:02:46.428Z,97725.97
2022-09-12T01:05:16.379Z,97730.16
2022-09-12T01:07:48.503Z,97726.47
2022-09-12T01:10:16.731Z,97727.75
2022-09-12T01:12:45.540Z,97715.88
2022-09-12T01:15:14.221Z,97721.81
2022-09-12T01:17:57.192Z,97724.84
2022-09-12T01:20:44.337Z,97725.84
2022-09-12T01:23:40.377Z,97721.03
2022-09-12T01:26:37.180Z,97727.75
2022-09-12T01:29:28.455Z,97716.19
2022-09-12T01:32:06.990Z,97715.09
2022-09-12T01:34:43.546Z,97718.63
2022-09-12T01:37:18.911Z,97722.28
2022-09-12T01:39:56.151Z,97719.41
2022-09-12T01:42:32.609Z,97716.38
2022-09-12T01:45:10.914Z,97708.34
2022-09-12T01:47:45.866Z,97712.19
2022-09-12T01:50:19.142Z,97709.94
2022-09-12T01:52:51.867Z,97700.34
2022-09-12T01:55:24.111Z,97704.50
2022-09-12T01:57:56.018Z,97714.28
2022-09-12T02:00:24.245Z,97712.84
2022-09-12T02:02:58.412Z,97713.00
2022-09-12T02:05:32.695Z,97705.28
2022-09-12T02:08:05.922Z,97704.34
2022-09-12T02:10:39.417Z,97709.63
2022-09-12T02:13:13.519Z,97707.25
2022-09-12T02:15:47.420Z,97700.19
2022-09-12T02:18:19.446Z,97696.81
2022-09-12T02:20:49.748Z,97702.84
2022-09-12T02:23:23.552Z,97707.34
2022-09-12T02:25:56.146Z,97700.78
2022-09-12T02:28:28.496Z,97696.44
2022-09-12T02:31:05.299Z,97699.31
2022-09-12T02:33:45.074Z,97698.69
2022-09-12T02:36:24.855Z,97697.88
2022-09-12T02:38:52.788Z,97696.25
2022-09-12T02:41:22.671Z,97701.22
2022-09-12T02:43:52.736Z,97708.75
2022-09-12T02:46:24.888Z,97703.94
2022-09-12T02:48:54.440Z,97694.81
2022-09-12T02:51:23.910Z,97699.31
2022-09-12T02:53:52.004Z,97698.19
2022-09-12T02:56:26.151Z,97699.63
2022-09-12T02:58:55.494Z,97698.94
2022-09-12T03:01:38.319Z,97701.28
2022-09-12T03:04:27.086Z,97694.53
2022-09-12T03:07:14.987Z,97689.78
2022-09-12T03:09:50.386Z,97690.41
2022-09-12T03:12:31.632Z,97686.88
2022-09-12T03:15:21.910Z,97689.09
2022-09-12T03:18:03.397Z,97688.66
2022-09-12T03:20:45.179Z,97691.38
2022-09-12T03:23:24.725Z,97695.19
2022-09-12T03:25:58.323Z,97690.72
2022-09-12T03:28:27.221Z,97691.94
2022-09-12T03:30:56.623Z,97697.88
2022-09-12T03:33:27.351Z,97694.97
2022-09-12T03:35:57.185Z,97692.50
2022-09-12T03:38:25.439Z,97692.94
2022-09-12T03:40:54.980Z,97703.22
2022-09-12T03:43:23.868Z,97700.81
2022-09-12T03:45:52.912Z,97694.31
2022-09-12T03:48:21.250Z,97692.13
2022-09-12T03:50:49.129Z,97700.44
2022-09-12T03:53:18.982Z,97697.47
2022-09-12T03:55:46.887Z,97699.19
2022-09-12T03:58:15.638Z,97706.41
2022-09-12T04:00:44.394Z,97692.78
2022-09-12T04:03:12.732Z,97702.28
2022-09-12T04:05:40.625Z,97709.00
2022-09-12T04:08:08.933Z,97700.44
2022-09-12T04:10:38.227Z,97697.22
2022-09-12T04:13:06.298Z,97692.44
2022-09-12T04:15:34.573Z,97696.13
2022-09-12T04:18:05.699Z,97692.47
2022-09-12T04:20:34.577Z,97694.28
2022-09-12T04:23:02.535Z,97694.13
2022-09-12T04:25:31.854Z,97693.88
2022-09-12T04:28:01.222Z,97692.22
2022-09-12T04:30:29.610Z,97693.66
2022-09-12T04:32:57.548Z,97695.06
2022-09-12T04:35:25.610Z,97704.75
2022-09-12T04:37:53.649Z,97700.66
2022-09-12T04:40:21.742Z,97691.03
2022-09-12T04:42:49.646Z,97694.00
2022-09-12T04:45:19.672Z,97692.03
2022-09-12T04:47:47.725Z,97694.13
2022-09-12T04:50:16.041Z,97696.13
2022-09-12T04:52:44.052Z,97699.88
2022-09-12T04:55:12.281Z,97696.50
2022-09-12T04:57:40.114Z,97707.38
2022-09-12T05:00:10.769Z,97703.22
2022-09-12T05:02:40.217Z,97706.13
2022-09-12T05:05:09.480Z,97709.22
2022-09-12T05:07:37.518Z,97703.19
2022-09-12T05:10:06.255Z,97709.34
2022-09-12T05:12:34.120Z,97708.38
2022-09-12T05:15:02.339Z,97705.00
2022-09-12T05:17:30.689Z,97714.03
2022-09-12T05:20:01.111Z,97709.47
2022-09-12T05:22:28.952Z,97713.59
2022-09-12T05:24:56.784Z,97718.31
2022-09-12T05:27:25.057Z,97715.28
2022-09-12T05:29:53.026Z,97716.41
2022-09-12T05:32:21.544Z,97715.44
2022-09-12T05:34:51.747Z,97720.53
2022-09-12T05:37:23.798Z,97723.44
2022-09-12T05:39:52.362Z,97727.53
2022-09-12T05:42:20.925Z,97724.59
2022-09-12T05:44:48.834Z,97724.03
2022-09-12T05:47:20.228Z,97718.47
2022-09-12T05:49:54.448Z,97721.97
2022-09-12T05:52:24.103Z,97716.41
2022-09-12T05:54:52.063Z,97726.28
2022-09-12T05:57:20.430Z,97729.47
2022-09-12T05:59:49.751Z,97728.41
2022-09-12T06:02:18.702Z,97732.94
2022-09-12T06:04:46.959Z,97725.91
2022-09-12T06:07:15.879Z,97724.81
2022-09-12T06:09:45.227Z,97732.69
2022-09-12T06:12:13.788Z,97729.00
2022-09-12T06:14:41.674Z,97733.97
2022-09-12T06:17:09.646Z,97727.75
2022-09-12T06:19:37.802Z,97730.16
2022-09-12T06:22:05.919Z,97731.44
2022-09-12T06:24:33.788Z,97727.91
2022-09-12T06:27:03.681Z,97729.75
2022-09-12T06:29:32.637Z,97725.66
2022-09-12T06:32:00.954Z,97725.25
2022-09-12T06:34:29.060Z,97728.72
2022-09-12T06:36:58.356Z,97722.63
2022-09-12T06:39:26.663Z,97721.66
2022-09-12T06:41:54.957Z,97728.59
2022-09-12T06:44:24.466Z,97724.97
2022-09-12T06:46:54.112Z,97723.03
2022-09-12T06:49:22.088Z,97719.22
2022-09-12T06:51:50.348Z,97717.09
2022-09-12T06:54:20.077Z,97713.78
2022-09-12T06:56:48.106Z,97710.78
2022-09-12T06:59:16.100Z,97715.59
2022-09-12T07:01:45.885Z,97714.09
2022-09-12T07:04:13.826Z,97711.19
2022-09-12T07:06:45.103Z,97717.38
2022-09-12T07:09:16.448Z,97720.88
2022-09-12T07:11:45.857Z,97715.94
2022-09-12T07:14:15.116Z,97723.56
2022-09-12T07:16:44.365Z,97726.59
2022-09-12T07:19:14.030Z,97725.06
2022-09-12T07:21:42.565Z,97717.50
2022-09-12T07:24:11.351Z,97719.59
2022-09-12T07:26:42.578Z,97723.06
2022-09-12T07:29:35.909Z,97716.19
2022-09-12T07:32:06.280Z,97721.47
2022-09-12T07:34:35.925Z,97714.38
2022-09-12T07:37:04.307Z,97719.00
2022-09-12T07:39:32.426Z,97713.50
2022-09-12T07:42:00.839Z,97710.78
2022-09-12T07:44:29.464Z,97705.00
2022-09-12T07:46:57.739Z,97718.38
2022-09-12T07:49:25.679Z,97717.94
2022-09-12T07:51:55.353Z,97710.31
2022-09-12T07:54:23.911Z,97722.28
2022-09-12T07:56:52.195Z,97723.59
2022-09-12T07:59:35.702Z,97709.09
2022-09-12T08:02:16.124Z,97706.06
2022-09-12T08:04:45.240Z,97711.69
2022-09-12T08:07:14.849Z,97712.31
2022-09-12T08:09:42.797Z,97719.22
2022-09-12T08:12:11.072Z,97714.63
2022-09-12T08:14:38.937Z,97714.25
2022-09-12T08:17:07.234Z,97712.88
2022-09-12T08:19:35.105Z,97719.69
2022-09-12T08:22:03.702Z,97713.22
2022-09-12T08:24:33.621Z,97716.41
2022-09-12T08:27:01.902Z,97717.72
2022-09-12T08:29:29.837Z,97727.38
2022-09-12T08:31:58.065Z,97718.41
2022-09-12T08:34:26.214Z,97716.34
2022-09-12T08:36:55.193Z,97717.78
2022-09-12T08:39:25.005Z,97721.72
2022-09-12T08:42:02.579Z,97721.38
2022-09-12T08:44:53.465Z,97720.78
2022-09-12T08:47:27.129Z,97716.81
2022-09-12T08:50:01.985Z,97712.59
2022-09-12T08:52:37.739Z,97708.75
2022-09-12T08:55:14.500Z,97704.06
2022-09-12T08:57:44.101Z,97712.59
2022-09-12T09:00:15.845Z,97705.56
2022-09-12T09:03:02.127Z,97702.34
2022-09-12T09:05:47.248Z,97700.84
2022-09-12T09:08:40.780Z,97702.91
2022-09-12T09:11:26.766Z,97697.03
2022-09-12T09:14:29.777Z,97690.53
2022-09-12T09:16:58.937Z,97697.41
2022-09-12T09:19:30.928Z,97689.53
2022-09-12T09:22:02.087Z,97697.88
2022-09-12T09:24:35.772Z,97693.84
2022-09-12T09:27:23.505Z,97692.75
2022-09-12T09:29:57.846Z,97694.47
2022-09-12T09:32:28.854Z,97690.59
2022-09-12T09:34:57.187Z,97688.13
2022-09-12T09:37:36.273Z,97691.66
2022-09-12T09:40:16.106Z,97696.16
2022-09-12T09:42:52.018Z,97691.03
2022-09-12T09:45:24.601Z,97693.66
2022-09-12T09:47:58.150Z,97689.72
2022-09-12T09:50:26.953Z,97682.78
2022-09-12T09:52:57.198Z,97685.50
2022-09-12T09:55:28.955Z,97684.22
2022-09-12T09:57:56.817Z,97674.41
2022-09-12T10:00:30.911Z,97678.22
2022-09-12T10:03:25.586Z,97668.28
2022-09-12T10:05:55.958Z,97663.16
2022-09-12T10:08:26.327Z,97658.72
2022-09-12T10:10:56.331Z,97664.03
2022-09-12T10:13:35.193Z,97653.34
2022-09-12T10:16:07.104Z,97663.41
2022-09-12T10:18:42.543Z,97659.91
2022-09-12T10:21:21.078Z,97658.22
2022-09-12T10:23:53.102Z,97649.25
2022-09-12T10:26:22.681Z,97652.88
2022-09-12T10:28:53.531Z,97645.56
2022-09-12T10:31:29.517Z,97640.19
2022-09-12T10:34:05.680Z,97655.72
2022-09-12T10:36:39.474Z,97643.28
2022-09-12T10:39:08.185Z,97645.41
2022-09-12T10:41:42.738Z,97644.84
2022-09-12T10:44:18.221Z,97652.13
2022-09-12T10:46:47.895Z,97639.94
2022-09-12T10:49:23.661Z,97646.66
2022-09-12T10:51:53.320Z,97646.28
2022-09-12T10:54:24.726Z,97644.19
2022-09-12T10:57:17.386Z,97652.66
2022-09-12T11:00:03.694Z,97644.72
2022-09-12T11:02:45.353Z,97644.06
2022-09-12T11:05:22.806Z,97637.53
2022-09-12T11:08:00.119Z,97633.72
2022-09-12T11:10:44.472Z,97637.00
2022-09-12T11:13:26.861Z,97631.88
2022-09-12T11:16:08.070Z,97631.19
2022-09-12T11:18:55.402Z,97623.44
2022-09-12T11:21:40.067Z,97621.75
2022-09-12T11:24:28.304Z,97622.09
2022-09-12T11:27:09.006Z,97619.34
2022-09-12T11:29:49.522Z,97623.88
2022-09-12T11:32:47.495Z,97621.25
2022-09-12T11:35:24.751Z,97619.75
2022-09-12T11:38:16.001Z,97614.81
2022-09-12T11:40:50.286Z,97618.00
2022-09-12T11:43:26.761Z,97611.44
2022-09-12T11:45:55.737Z,97609.63
2022-09-12T11:48:36.298Z,97603.31
2022-09-12T11:51:16.474Z,97601.75
2022-09-12T11:53:46.548Z,97604.59
2022-09-12T11:56:18.885Z,97598.56
2022-09-12T11:58:54.194Z,97600.56
2022-09-12T12:01:27.699Z,97605.69
2022-09-12T12:03:57.927Z,97599.84
2022-09-12T12:06:33.289Z,97599.91
2022-09-12T12:09:01.332Z,97603.72
2022-09-12T12:11:34.482Z,97603.47
2022-09-12T12:14:04.633Z,97599.47
2022-09-12T12:16:35.379Z,97603.31
2022-09-12T12:19:10.702Z,97595.00
2022-09-12T12:21:45.668Z,97598.16
2022-09-12T12:24:18.923Z,97584.81
2022-09-12T12:26:58.790Z,97587.34
2022-09-12T12:29:44.077Z,97592.03
2022-09-12T12:32:26.913Z,97583.63
2022-09-12T12:35:37.072Z,97593.72
2022-09-12T12:38:27.677Z,97582.47
2022-09-12T12:41:44.681Z,97581.94
2022-09-12T12:44:57.806Z,97577.47
2022-09-12T12:47:29.326Z,97568.53
2022-09-12T12:50:00.464Z,97570.69
2022-09-12T12:52:32.651Z,97557.13
2022-09-12T12:55:03.709Z,97551.63
2022-09-12T12:57:42.236Z,97559.28
2022-09-12T13:00:30.012Z,97551.78
2022-09-12T13:03:01.576Z,97550.06
2022-09-12T13:05:32.019Z,97544.41
2022-09-12T13:08:11.251Z,97544.22
2022-09-12T13:10:49.886Z,97544.81
2022-09-12T13:13:24.872Z,97551.69
2022-09-12T13:15:53.766Z,97543.19
2022-09-12T13:18:27.949Z,97544.50
2022-09-12T13:21:05.677Z,97537.22
2022-09-12T13:23:35.595Z,97536.28
2022-09-12T13:26:11.414Z,97529.97
2022-09-12T13:28:39.703Z,97528.44
2022-09-12T13:31:16.978Z,97526.97
2022-09-12T13:33:49.090Z,97521.88
2022-09-12T13:36:47.714Z,97514.94
2022-09-12T13:39:20.168Z,97508.31
2022-09-12T13:42:20.475Z,97511.25
2022-09-12T13:44:52.183Z,97510.84
2022-09-12T13:47:26.529Z,97508.19
2022-09-12T13:49:55.603Z,97499.72
2022-09-12T13:52:27.217Z,97502.91
2022-09-12T13:54:59.551Z,97501.34
2022-09-12T13:57:33.959Z,97497.06
2022-09-12T14:00:07.601Z,97496.78
2022-09-12T14:02:37.931Z,97491.66
2022-09-12T14:05:19.800Z,97494.63
2022-09-12T14:08:02.802Z,97495.09
2022-09-12T14:10:35.286Z,97490.78
2022-09-12T14:13:12.277Z,97492.53
2022-09-12T14:15:46.418Z,97501.41
2022-09-12T14:18:25.051Z,97490.97
2022-09-12T14:20:55.099Z,97506.19
2022-09-12T14:23:29.006Z,97492.13
2022-09-12T14:26:00.100Z,97492.09
2022-09-12T14:28:30.557Z,97491.38
2022-09-12T14:31:03.202Z,97482.41
2022-09-12T14:33:35.324Z,97485.44
2022-09-12T14:36:13.229Z,97483.19
2022-09-12T14:38:45.308Z,97482.50
2022-09-12T14:41:21.588Z,97482.13
2022-09-12T14:43:54.634Z,97481.75
2022-09-12T14:46:28.462Z,97481.16
2022-09-12T14:48:59.959Z,97473.00
2022-09-12T14:51:32.191Z,97477.41
2022-09-12T14:54:00.642Z,97470.72
2022-09-12T14:56:54.545Z,97475.53
2022-09-12T14:59:30.226Z,97469.16
2022-09-12T15:02:22.963Z,97468.34
2022-09-12T15:04:52.644Z,97463.75
2022-09-12T15:07:29.776Z,97469.47
2022-09-12T15:10:00.030Z,97468.06
2022-09-12T15:12:28.511Z,97470.53
2022-09-12T15:15:01.719Z,97471.59
2022-09-12T15:17:31.004Z,97473.56
2022-09-12T15:19:59.313Z,97471.00
2022-09-12T15:22:27.175Z,97472.25
2022-09-12T15:24:57.865Z,97470.47
2022-09-12T15:27:26.630Z,97472.16
2022-09-12T15:29:54.910Z,97471.84
2022-09-12T15:32:24.799Z,97461.84
2022-09-12T15:34:54.746Z,97463.88
2022-09-12T15:37:24.370Z,97456.81
2022-09-12T15:39:53.292Z,97453.66
2022-09-12T15:42:29.108Z,97452.03
2022-09-12T15:45:01.773Z,97452.00
2022-09-12T15:47:30.294Z,97457.13
2022-09-12T15:49:59.974Z,97453.81
2022-09-12T15:52:28.316Z,97454.97
2022-09-12T15:54:56.547Z,97447.81
2022-09-12T15:57:24.465Z,97455.34
2022-09-12T15:59:53.075Z,97450.69
2022-09-12T16:02:21.149Z,97456.31
2022-09-12T16:04:49.783Z,97447.09
2022-09-12T16:07:19.010Z,97449.16
2022-09-12T16:09:47.626Z,97443.63
2022-09-12T16:12:15.489Z,97439.94
2022-09-12T16:14:43.809Z,97432.03
2022-09-12T16:17:12.025Z,97430.09
2022-09-12T16:19:39.899Z,97438.19
2022-09-12T16:22:07.858Z,97438.22
2022-09-12T16:24:38.196Z,97435.47
2022-09-12T16:27:06.111Z,97437.84
2022-09-12T16:29:34.099Z,97425.53
2022-09-12T16:32:02.038Z,97425.50
2022-09-12T16:34:29.958Z,97418.34
2022-09-12T16:36:57.834Z,97418.72
2022-09-12T16:39:26.287Z,97419.75
2022-09-12T16:41:55.532Z,97423.16
2022-09-12T16:44:23.431Z,97421.16
2022-09-12T16:46:51.419Z,97423.13
2022-09-12T16:49:19.734Z,97410.31
2022-09-12T16:52:42.976Z,97403.16
2022-09-12T16:55:11.747Z,97404.63
2022-09-12T16:57:40.055Z,97404.88
2022-09-12T17:00:10.487Z,97402.22
2022-09-12T17:02:38.927Z,97401.41
2022-09-12T17:05:08.564Z,97402.59
2022-09-12T17:07:36.878Z,97394.66
2022-09-12T17:28:30.435Z,97405.50
2022-09-12T17:31:00.196Z,97402.16
2022-09-12T17:33:29.272Z,97405.22
2022-09-12T17:36:02.593Z,97403.81
2022-09-12T17:45:18.446Z,97392.81
2022-09-12T17:47:47.298Z,97404.50
2022-09-12T17:52:21.795Z,97415.63
2022-09-12T17:54:51.241Z,97408.78
2022-09-12T17:57:19.779Z,97405.81
2022-09-12T17:59:48.253Z,97417.53
2022-09-12T18:02:16.313Z,97413.28
2022-09-12T18:04:47.259Z,97419.75
2022-09-12T18:07:15.901Z,97414.34
2022-09-12T18:09:46.064Z,97424.16
2022-09-12T18:12:14.082Z,97418.00
2022-09-12T18:14:43.098Z,97423.69
2022-09-12T18:17:11.635Z,97423.94
2022-09-12T18:19:40.519Z,97426.16
2022-09-12T18:22:09.551Z,97426.00
2022-09-12T18:24:37.584Z,97428.75
2022-09-12T18:27:07.781Z,97415.59
2022-09-12T18:29:35.804Z,97427.84
2022-09-12T18:32:04.294Z,97416.84
2022-09-12T18:34:32.388Z,97424.72
2022-09-12T18:37:02.387Z,97422.44
2022-09-12T18:39:30.431Z,97412.38
2022-09-12T18:41:58.899Z,97414.66
2022-09-12T18:44:28.282Z,97407.66
2022-09-12T18:46:56.790Z,97418.88
2022-09-12T18:49:24.874Z,97423.78
2022-09-12T18:51:53.311Z,97427.38
2022-09-12T18:54:21.559Z,97424.69
2022-09-12T18:56:50.217Z,97422.78
2022-09-12T18:59:18.342Z,97425.75
2022-09-12T19:01:48.491Z,97417.91
2022-09-12T19:04:25.552Z,97421.88
2022-09-12T19:06:53.933Z,97422.38
2022-09-12T19:09:22.336Z,97425.13
2022-09-12T19:11:50.751Z,97419.09
2022-09-12T19:14:20.644Z,97420.13
2022-09-12T19:16:52.575Z,97411.69
2022-09-12T19:19:21.306Z,97410.53
2022-09-12T19:21:49.626Z,97400.16
2022-09-12T19:24:17.691Z,97408.94
2022-09-12T19:26:46.614Z,97407.38
2022-09-12T19:29:16.557Z,97403.00
2022-09-12T19:31:45.566Z,97410.44
2022-09-12T19:34:15.492Z,97408.91
2022-09-12T19:36:45.738Z,97406.41
2022-09-12T19:39:15.316Z,97408.13
2022-09-12T19:41:44.261Z,97412.22
2022-09-12T19:44:12.756Z,97404.94
2022-09-12T19:46:40.868Z,97410.84
2022-09-12T19:49:09.026Z,97408.44
2022-09-12T19:51:38.470Z,97413.22
2022-09-12T19:54:07.840Z,97412.06
2022-09-12T19:56:35.971Z,97408.16
2022-09-12T19:59:04.356Z,97415.81
2022-09-12T20:01:32.571Z,97415.13
2022-09-12T20:04:01.077Z,97405.34
2022-09-12T20:06:29.034Z,97405.84
2022-09-12T20:08:59.659Z,97405.66
2022-09-12T20:11:27.590Z,97409.41
2022-09-12T20:13:55.900Z,97404.34
2022-09-12T20:16:28.550Z,97416.56
2022-09-12T20:18:58.675Z,97412.53
2022-09-12T20:21:31.862Z,97415.84
2022-09-12T20:24:06.805Z,97429.63
2022-09-12T20:26:34.819Z,97425.53
2022-09-12T20:29:03.760Z,97418.38
2022-09-12T20:31:32.107Z,97415.50
2022-09-12T20:34:00.842Z,97415.72
2022-09-12T20:36:29.232Z,97414.91
2022-09-12T20:39:00.349Z,97400.22
2022-09-12T20:41:32.167Z,97413.19
2022-09-12T20:44:00.881Z,97394.72
2022-09-12T20:46:30.239Z,97411.59
2022-09-12T20:48:59.271Z,97403.50
2022-09-12T20:51:29.789Z,97409.53
2022-09-12T20:53:59.234Z,97411.47
2022-09-12T20:56:29.543Z,97414.16
2022-09-12T20:58:58.229Z,97409.69
2022-09-12T21:01:27.867Z,97401.75
2022-09-12T21:03:56.351Z,97395.50
2022-09-12T21:06:24.728Z,97374.53
2022-09-12T21:08:53.119Z,97396.41
2022-09-12T21:11:21.549Z,97392.97
2022-09-12T21:13:53.152Z,97399.59
2022-09-12T21:16:23.668Z,97387.91
2022-09-12T21:18:55.639Z,97387.84
2022-09-12T21:21:24.195Z,97384.38
2022-09-12T21:23:52.569Z,97383.13
2022-09-12T21:26:20.444Z,97383.63
2022-09-12T21:28:50.822Z,97381.66
2022-09-12T21:31:19.152Z,97376.06
2022-09-12T21:33:47.734Z,97374.56
2022-09-12T21:36:15.719Z,97372.13
2022-09-12T21:38:43.840Z,97376.28
2022-09-12T21:41:14.184Z,97376.81
2022-09-12T21:43:42.314Z,97383.53
2022-09-12T21:46:12.928Z,97380.69
2022-09-12T21:48:40.863Z,97375.81
2022-09-12T21:51:09.407Z,97377.72
2022-09-12T21:53:37.587Z,97375.59
2022-09-12T21:56:08.214Z,97373.28
2022-09-12T21:58:40.427Z,97351.25
2022-09-12T22:01:09.688Z,97367.59
2022-09-12T22:03:39.166Z,97368.22
2022-09-12T22:06:08.370Z,97370.78
2022-09-12T22:08:37.583Z,97373.50
2022-09-12T22:11:09.266Z,97367.13
2022-09-12T22:13:38.030Z,97369.41
2022-09-12T22:16:07.735Z,97370.03
2022-09-12T22:18:36.255Z,97374.38
2022-09-12T22:21:09.040Z,97371.50
2022-09-12T22:23:54.494Z,97364.91
2022-09-12T22:26:22.869Z,97363.13
2022-09-12T22:28:51.227Z,97362.06
2022-09-12T22:31:19.586Z,97353.56
2022-09-12T22:33:48.102Z,97353.41
2022-09-12T22:36:17.712Z,97361.31
2022-09-12T22:38:45.629Z,97347.53
2022-09-12T22:41:14.008Z,97345.16
2022-09-12T22:43:42.011Z,97338.28
2022-09-12T22:46:12.247Z,97340.69
2022-09-12T22:48:40.663Z,97327.06
2022-09-12T22:51:09.317Z,97336.84
2022-09-12T22:53:38.666Z,97329.44
2022-09-12T22:56:07.868Z,97313.63
2022-09-12T22:58:37.371Z,97317.56
2022-09-12T23:01:06.684Z,97311.41
2022-09-12T23:03:35.225Z,97315.56
2022-09-12T23:06:03.965Z,97309.13
2022-09-12T23:08:32.109Z,97307.25
2022-09-12T23:11:06.587Z,97313.47
2022-09-12T23:13:34.694Z,97317.31
2022-09-12T23:16:04.535Z,97317.81
2022-09-12T23:18:34.938Z,97309.56
2022-09-12T23:21:05.104Z,97315.50
2022-09-12T23:23:33.823Z,97299.94
2022-09-12T23:26:12.824Z,97309.75
2022-09-12T23:28:41.444Z,97301.28
2022-09-12T23:31:10.635Z,97308.19
2022-09-12T23:33:38.583Z,97310.44
2022-09-12T23:36:08.891Z,97288.63
2022-09-12T23:38:37.490Z,97293.53
2022-09-12T23:41:05.725Z,97291.47
2022-09-12T23:43:35.742Z,97300.31
2022-09-12T23:46:04.713Z,97296.97
2022-09-12T23:48:32.916Z,97301.31
2022-09-12T23:51:01.343Z,97302.75
2022-09-12T23:53:29.958Z,97305.69
2022-09-12T23:55:58.600Z,97294.63
2022-09-12T23:58:27.311Z,97303.91
